Time;durP1;ratioP1;P1;durP2;ratioP2;P2;SDS_P1;SDS_P2;PMS_P1;PMS_P2;Temp;Humidity;BMP_temperature;BMP_pressure;BME280_temperature;BME280_humidity;BME280_pressure;Samples;Min_cycle;Max_cycle;Signal;HPM_P1;HPM_P2
2023/03/15 00:00:19;;;;;;;;;3.50;2.50;;;;;20.58;57.49;99455.46;109942;1266;18455;-40
2023/03/15 00:03:06;;;;;;;;;2.00;2.00;;;;;20.58;57.78;99459.79;109928;1266;18717;-39
2023/03/15 00:05:34;;;;;;;;;1.00;1.00;;;;;20.57;57.87;99461.58;109932;1266;20577;-41
2023/03/15 00:08:01;;;;;;;;;1.00;1.00;;;;;20.58;57.82;99460.20;109990;1266;22611;-40
2023/03/15 00:10:29;;;;;;;;;1.50;1.50;;;;;20.58;57.82;99463.09;109925;1266;18826;-40
2023/03/15 00:12:56;;;;;;;;;1.50;1.50;;;;;20.57;57.69;99470.58;109908;1250;21086;-40
2023/03/15 00:15:24;;;;;;;;;2.00;2.00;;;;;20.57;57.97;99485.66;109912;1266;18413;-40
2023/03/15 00:17:51;;;;;;;;;2.00;2.00;;;;;20.58;57.75;99502.50;109899;1266;20038;-40
2023/03/15 00:20:19;;;;;;;;;2.00;2.00;;;;;20.57;57.87;99505.84;109946;1266;21159;-40
2023/03/15 00:22:46;;;;;;;;;1.00;1.00;;;;;20.59;57.84;99513.60;109954;1253;19637;-39
2023/03/15 00:25:14;;;;;;;;;2.00;2.00;;;;;20.58;57.84;99523.30;109969;1266;20168;-39
2023/03/15 00:27:41;;;;;;;;;2.00;2.00;;;;;20.59;57.88;99534.11;109919;1250;20753;-42
2023/03/15 00:30:08;;;;;;;;;2.00;1.00;;;;;20.58;57.98;99536.18;109950;1253;19561;-40
2023/03/15 00:32:36;;;;;;;;;3.00;3.00;;;;;20.58;57.90;99540.44;109825;1251;18747;-40
2023/03/15 00:35:03;;;;;;;;;1.00;1.00;;;;;20.58;57.79;99546.22;109955;1266;20757;-40
2023/03/15 00:37:31;;;;;;;;;1.00;1.00;;;;;20.58;57.94;99556.55;109940;1266;18559;-40
2023/03/15 00:39:58;;;;;;;;;2.00;1.00;;;;;20.57;57.84;99561.16;109929;1266;20146;-40
2023/03/15 00:42:27;;;;;;;;;1.00;1.00;;;;;20.56;57.85;99561.10;109917;1266;20766;-41
2023/03/15 00:44:55;;;;;;;;;1.00;1.00;;;;;20.56;57.95;99571.08;109996;1266;18427;-40
2023/03/15 00:47:22;;;;;;;;;1.50;1.50;;;;;20.57;57.77;99583.48;109953;1260;18657;-40
2023/03/15 00:49:50;;;;;;;;;1.00;1.00;;;;;20.57;57.95;99588.08;109954;1266;20978;-42
2023/03/15 00:52:18;;;;;;;;;2.00;2.00;;;;;20.56;57.82;99579.95;109930;1266;18383;-40
2023/03/15 00:54:45;;;;;;;;;1.00;1.00;;;;;20.56;57.74;99573.13;109948;1250;20644;-40
2023/03/15 00:57:13;;;;;;;;;1.00;1.00;;;;;20.55;57.81;99572.13;109902;1260;22677;-39
2023/03/15 00:59:40;;;;;;;;;1.00;1.00;;;;;20.56;57.56;99585.27;109912;1251;19901;-40
2023/03/15 01:02:08;;;;;;;;;1.00;1.00;;;;;20.56;57.62;99599.05;109936;1260;19712;-40
2023/03/15 01:04:35;;;;;;;;;2.00;2.00;;;;;20.55;57.82;99605.50;109928;1266;19375;-41
2023/03/15 01:07:03;;;;;;;;;1.00;1.00;;;;;20.55;57.60;99603.33;109925;1266;18541;-39
2023/03/15 01:09:30;;;;;;;;;1.00;1.00;;;;;20.54;57.71;99601.44;109908;1259;19978;-41
2023/03/15 01:11:58;;;;;;;;;1.00;1.00;;;;;20.54;57.68;99602.91;109953;1266;19445;-41
2023/03/15 01:14:25;;;;;;;;;1.00;1.00;;;;;20.54;57.71;99602.44;109935;1251;20773;-41
2023/03/15 01:16:53;;;;;;;;;2.00;2.00;;;;;20.53;57.66;99614.80;109970;1266;18576;-41
2023/03/15 01:19:20;;;;;;;;;1.00;1.00;;;;;20.54;57.73;99631.72;109922;1250;20999;-39
2023/03/15 01:21:47;;;;;;;;;1.00;1.00;;;;;20.54;57.48;99635.73;109915;1266;18511;-40
2023/03/15 01:24:15;;;;;;;;;1.00;1.00;;;;;20.55;57.62;99649.97;109967;1266;18857;-41
2023/03/15 01:26:42;;;;;;;;;2.00;2.00;;;;;20.54;57.80;99662.98;109943;1266;19736;-39
2023/03/15 01:29:10;;;;;;;;;1.00;1.00;;;;;20.53;57.44;99670.67;109934;1266;18390;-41
2023/03/15 01:31:38;;;;;;;;;1.00;1.00;;;;;20.54;57.63;99681.30;109929;1259;20117;-39
2023/03/15 01:34:05;;;;;;;;;1.00;1.00;;;;;20.54;57.52;99685.48;109931;1266;19557;-40
2023/03/15 01:36:33;;;;;;;;;1.00;1.00;;;;;20.53;57.79;99683.97;109942;1266;18993;-40
2023/03/15 01:39:00;;;;;;;;;1.00;1.00;;;;;20.53;57.56;99692.52;110028;1254;18631;-42
2023/03/15 01:41:28;;;;;;;;;1.00;1.00;;;;;20.53;57.64;99698.14;110034;1266;20692;-40
2023/03/15 01:43:55;;;;;;;;;1.00;1.00;;;;;20.52;57.46;99702.20;109994;1259;18264;-40
2023/03/15 01:46:23;;;;;;;;;2.00;2.00;;;;;20.53;57.43;99707.60;109944;1266;22283;-42
2023/03/15 01:48:50;;;;;;;;;1.00;1.00;;;;;20.51;57.50;99709.42;109913;1266;20876;-40
2023/03/15 01:51:18;;;;;;;;;1.00;1.00;;;;;20.51;57.70;99708.33;110033;1266;20641;-40
2023/03/15 01:53:45;;;;;;;;;1.00;1.00;;;;;20.51;57.45;99709.08;110041;1266;20085;-41
2023/03/15 01:56:13;;;;;;;;;1.00;1.00;;;;;20.50;57.52;99711.17;110035;1266;20740;-40
2023/03/15 01:58:40;;;;;;;;;1.00;1.00;;;;;20.51;57.60;99715.11;110016;1250;21140;-40
2023/03/15 02:01:08;;;;;;;;;1.00;1.00;;;;;20.51;57.35;99714.15;110026;1266;18753;-40
2023/03/15 02:03:35;;;;;;;;;1.00;1.00;;;;;20.51;57.36;99719.09;110041;1266;19366;-40
2023/03/15 02:06:02;;;;;;;;;1.00;1.00;;;;;20.51;57.28;99724.16;110038;1253;19862;-40
2023/03/15 02:08:31;;;;;;;;;1.00;1.00;;;;;20.50;57.23;99727.33;110046;1253;20013;-41
2023/03/15 02:10:59;;;;;;;;;1.00;1.00;;;;;20.51;57.28;99732.13;109979;1266;19377;-41
2023/03/15 02:13:26;;;;;;;;;1.00;1.00;;;;;20.51;57.40;99736.27;110020;1266;19814;-39
2023/03/15 02:15:53;;;;;;;;;1.00;1.00;;;;;20.50;57.42;99736.59;110002;1266;19968;-39
2023/03/15 02:18:21;;;;;;;;;1.00;1.00;;;;;20.51;57.42;99743.62;110007;1254;20839;-40
2023/03/15 02:20:48;;;;;;;;;1.00;1.00;;;;;20.51;57.25;99751.59;109972;1253;20812;-40
2023/03/15 02:23:16;;;;;;;;;1.00;1.00;;;;;20.50;57.36;99760.58;110085;1266;19969;-40
2023/03/15 02:25:43;;;;;;;;;1.00;1.00;;;;;20.49;57.37;99762.13;110041;1266;20951;-40
2023/03/15 02:28:11;;;;;;;;;2.00;2.00;;;;;20.49;57.42;99770.13;110054;1266;18474;-40
2023/03/15 02:30:38;;;;;;;;;1.00;1.00;;;;;20.50;57.42;99777.80;110017;1266;22844;-40
2023/03/15 02:33:05;;;;;;;;;1.00;1.00;;;;;20.49;57.42;99779.72;110030;1266;19234;-41
2023/03/15 02:35:33;;;;;;;;;2.00;1.00;;;;;20.49;57.48;99785.16;110061;1251;19567;-40
2023/03/15 02:38:01;;;;;;;;;1.00;1.00;;;;;20.50;57.24;99791.23;110034;1266;18616;-42
2023/03/15 02:40:29;;;;;;;;;1.00;1.00;;;;;20.50;57.21;99794.59;110025;1250;20917;-40
2023/03/15 02:42:56;;;;;;;;;1.00;1.00;;;;;20.49;57.09;99797.94;110054;1266;18431;-42
2023/03/15 02:45:23;;;;;;;;;1.00;1.00;;;;;20.49;57.30;99802.63;110016;1252;20077;-40
2023/03/15 02:47:51;;;;;;;;;1.00;1.00;;;;;20.49;57.18;99809.36;109970;1254;20796;-41
2023/03/15 02:50:18;;;;;;;;;1.00;1.00;;;;;20.49;57.04;99815.73;110035;1266;18464;-39
2023/03/15 02:52:46;;;;;;;;;1.00;1.00;;;;;20.48;57.19;99820.34;110056;1250;20038;-41
2023/03/15 02:55:13;;;;;;;;;1.00;1.00;;;;;20.49;57.23;99828.13;110032;1266;20782;-40
2023/03/15 02:57:41;;;;;;;;;1.00;1.00;;;;;20.47;57.02;99826.99;110035;1266;19603;-41
2023/03/15 03:00:13;;;;;;;;;1.00;1.00;;;;;20.48;57.15;99830.34;110009;1260;20184;-40
2023/03/15 03:02:40;;;;;;;;;1.00;1.00;;;;;20.48;57.19;99835.19;110025;1250;22235;-40
2023/03/15 03:05:08;;;;;;;;;1.00;1.00;;;;;20.48;57.25;99840.30;110013;1266;18777;-40
2023/03/15 03:07:35;;;;;;;;;1.00;1.00;;;;;20.48;57.13;99847.30;110023;1260;22913;-40
2023/03/15 03:10:02;;;;;;;;;1.00;1.00;;;;;20.47;57.12;99852.79;110034;1266;20705;-40
2023/03/15 03:12:30;;;;;;;;;1.00;1.00;;;;;20.46;57.02;99857.80;110044;1250;19655;-41
2023/03/15 03:14:57;;;;;;;;;1.00;1.00;;;;;20.47;57.09;99868.10;110009;1266;22271;-40
2023/03/15 03:17:25;;;;;;;;;1.00;1.00;;;;;20.47;57.07;99878.37;110021;1253;20796;-40
2023/03/15 03:19:52;;;;;;;;;1.00;1.00;;;;;20.47;56.80;99884.56;110036;1266;18540;-40
2023/03/15 03:22:23;;;;;;;;;1.00;1.00;;;;;20.47;57.06;99891.48;110042;1266;19969;-39
2023/03/15 03:24:50;;;;;;;;;1.00;1.00;;;;;20.46;57.11;99893.36;110019;1266;19348;-40
2023/03/15 03:27:18;;;;;;;;;1.00;1.00;;;;;20.46;56.89;99900.54;110021;1252;19629;-40
2023/03/15 03:29:45;;;;;;;;;1.00;1.00;;;;;20.46;56.85;99909.92;110064;1260;20021;-41
2023/03/15 03:32:13;;;;;;;;;1.00;1.00;;;;;20.46;56.83;99915.38;110081;1266;19363;-40
2023/03/15 03:34:40;;;;;;;;;1.00;1.00;;;;;20.46;56.98;99928.10;110019;1250;19637;-41
2023/03/15 03:37:08;;;;;;;;;1.00;1.00;;;;;20.46;56.89;99935.71;110019;1266;20347;-40
2023/03/15 03:39:35;;;;;;;;;1.00;1.00;;;;;20.45;56.98;99941.20;109986;1251;20840;-40
2023/03/15 03:42:02;;;;;;;;;1.00;1.00;;;;;20.46;57.00;99947.46;110046;1266;19619;-39
2023/03/15 03:44:30;;;;;;;;;1.00;1.00;;;;;20.45;56.88;99948.44;110021;1254;20043;-40
2023/03/15 03:46:57;;;;;;;;;1.00;1.00;;;;;20.45;56.79;99952.52;110009;1266;22595;-41
2023/03/15 03:49:25;;;;;;;;;1.00;1.00;;;;;20.44;56.79;99956.19;110040;1266;18337;-41
2023/03/15 03:51:52;;;;;;;;;1.00;1.00;;;;;20.45;56.76;99959.94;110025;1266;21348;-41
2023/03/15 03:54:20;;;;;;;;;2.00;2.00;;;;;20.45;56.82;99966.84;110027;1253;22503;-41
2023/03/15 03:56:48;;;;;;;;;1.00;1.00;;;;;20.45;56.88;99971.39;110032;1266;18428;-40
2023/03/15 03:59:15;;;;;;;;;1.00;1.00;;;;;20.44;56.90;99972.35;110033;1251;18928;-41
2023/03/15 04:01:43;;;;;;;;;1.00;1.00;;;;;20.44;56.88;99974.86;110048;1266;20746;-39
2023/03/15 04:04:12;;;;;;;;;1.00;1.00;;;;;20.45;56.88;99986.09;109968;1266;18409;-40
2023/03/15 04:06:44;;;;;;;;;1.00;1.00;;;;;20.43;56.93;99988.59;109950;1250;20170;-40
2023/03/15 04:09:11;;;;;;;;;1.00;1.00;;;;;20.44;56.75;100001.38;109906;1254;22224;-39
2023/03/15 04:11:41;;;;;;;;;1.00;1.00;;;;;20.44;56.96;99996.51;109920;1250;18329;-39
2023/03/15 04:14:09;;;;;;;;;1.00;1.00;;;;;20.44;56.71;99996.51;109944;1266;19881;-40
2023/03/15 04:16:36;;;;;;;;;1.00;1.00;;;;;20.43;56.75;99991.31;110072;1266;19327;-41
2023/03/15 04:19:04;;;;;;;;;1.00;1.00;;;;;20.44;56.54;99992.73;110012;1250;22959;-40
2023/03/15 04:21:31;;;;;;;;;1.00;1.00;;;;;20.44;56.62;99995.84;110031;1266;20090;-40
2023/03/15 04:23:59;;;;;;;;;1.00;1.00;;;;;20.44;56.75;99999.65;109922;1266;19330;-39
2023/03/15 04:26:26;;;;;;;;;1.00;1.00;;;;;20.44;56.64;100005.09;109908;1266;19697;-41
2023/03/15 04:28:54;;;;;;;;;1.00;1.00;;;;;20.43;56.67;100006.94;109998;1250;18617;-40
2023/03/15 04:31:25;;;;;;;;;1.00;1.00;;;;;20.43;56.51;100009.57;110052;1266;21072;-41
2023/03/15 04:33:54;;;;;;;;;1.00;1.00;;;;;20.44;56.43;100017.23;110063;1250;18357;-40
2023/03/15 04:36:21;;;;;;;;;1.00;1.00;;;;;20.44;56.41;100012.33;110059;1253;20336;-41
2023/03/15 04:38:49;;;;;;;;;1.00;1.00;;;;;20.43;56.64;100015.48;110067;1266;20679;-39
2023/03/15 04:41:16;;;;;;;;;1.00;1.00;;;;;20.44;56.44;100015.81;110020;1266;19544;-40
2023/03/15 04:43:43;;;;;;;;;1.00;1.00;;;;;20.42;56.47;100014.21;110024;1254;20261;-39
2023/03/15 04:46:11;;;;;;;;;1.00;1.00;;;;;20.43;56.63;100022.13;110038;1266;19381;-40
2023/03/15 04:48:40;;;;;;;;;1.00;1.00;;;;;20.42;56.64;100022.79;110029;1266;19977;-40
2023/03/15 04:51:07;;;;;;;;;1.00;1.00;;;;;20.42;56.44;100025.27;110008;1266;18593;-41
2023/03/15 04:53:35;;;;;;;;;1.00;1.00;;;;;20.41;56.56;100034.85;110034;1266;19714;-40
2023/03/15 04:56:03;;;;;;;;;1.00;1.00;;;;;20.41;56.38;100033.01;110018;1253;18391;-40
2023/03/15 04:58:30;;;;;;;;;1.00;1.00;;;;;20.42;56.50;100041.42;110009;1250;22239;-40
2023/03/15 05:00:57;;;;;;;;;1.67;1.67;;;;;20.42;56.34;100039.83;110069;1266;19217;-39
2023/03/15 05:03:25;;;;;;;;;1.00;1.00;;;;;20.41;56.55;100044.95;110040;1266;19867;-42
2023/03/15 05:05:52;;;;;;;;;1.00;1.00;;;;;20.41;56.42;100052.27;109998;1266;19996;-40
2023/03/15 05:08:20;;;;;;;;;1.00;1.00;;;;;20.41;56.45;100049.55;109985;1266;21391;-40
2023/03/15 05:10:48;;;;;;;;;1.00;1.00;;;;;20.41;56.43;100057.33;109998;1254;22911;-40
2023/03/15 05:13:17;;;;;;;;;1.00;1.00;;;;;20.41;56.24;100062.95;110056;1266;20319;-38
2023/03/15 05:15:45;;;;;;;;;1.00;1.00;;;;;20.41;56.39;100066.04;110023;1266;20728;-40
2023/03/15 05:18:13;;;;;;;;;1.00;1.00;;;;;20.40;56.31;100067.25;110050;1266;19819;-41
2023/03/15 05:20:40;;;;;;;;;1.00;1.00;;;;;20.41;56.44;100073.88;110019;1266;22812;-41
2023/03/15 05:23:07;;;;;;;;;1.00;1.00;;;;;20.40;56.34;100077.55;110018;1266;19387;-40
2023/03/15 05:25:35;;;;;;;;;1.00;1.00;;;;;20.41;56.17;100086.19;109905;1250;18264;-40
2023/03/15 05:28:04;;;;;;;;;1.00;1.00;;;;;20.40;56.27;100087.41;110015;1250;19974;-40
2023/03/15 05:30:31;;;;;;;;;1.00;1.00;;;;;20.40;56.29;100097.23;110109;1266;20743;-40
2023/03/15 05:33:03;;;;;;;;;1.00;1.00;;;;;20.40;56.36;100108.68;110042;1253;19675;-40
2023/03/15 05:35:31;;;;;;;;;2.00;1.00;;;;;20.40;56.14;100112.92;110051;1251;22674;-44
2023/03/15 05:37:58;;;;;;;;;1.00;1.00;;;;;20.41;56.18;100116.91;110020;1253;20753;-40
2023/03/15 05:40:28;;;;;;;;;1.00;1.00;;;;;20.41;56.16;100125.55;110020;1253;19866;-40
2023/03/15 05:42:56;;;;;;;;;1.00;1.00;;;;;20.40;56.22;100130.98;110018;1250;22779;-39
2023/03/15 05:45:23;;;;;;;;;1.00;1.00;;;;;20.40;56.09;100136.17;110051;1266;20715;-40
2023/03/15 05:47:50;;;;;;;;;1.00;1.00;;;;;20.39;56.09;100134.64;110063;1254;19620;-40
2023/03/15 05:50:18;;;;;;;;;1.00;1.00;;;;;20.40;56.25;100145.29;110016;1266;22396;-40
2023/03/15 05:52:45;;;;;;;;;1.00;1.00;;;;;20.40;56.28;100144.14;109920;1266;20743;-40
2023/03/15 05:55:13;;;;;;;;;2.00;2.00;;;;;20.41;56.19;100143.96;110027;1266;18519;-40
2023/03/15 05:57:41;;;;;;;;;1.00;1.00;;;;;20.41;56.00;100148.07;109907;1250;22786;-40
2023/03/15 06:00:09;;;;;;;;;1.00;1.00;;;;;20.45;55.88;100152.26;110051;1266;19844;-40
2023/03/15 06:02:36;;;;;;;;;1.00;1.00;;;;;20.49;56.29;100157.96;110016;1250;18471;-40
2023/03/15 06:05:04;;;;;;;;;2.00;1.00;;;;;20.50;56.62;100164.17;110048;1259;19166;-40
2023/03/15 06:07:31;;;;;;;;;4.00;4.00;;;;;20.52;56.94;100163.38;110067;1266;19316;-40
2023/03/15 06:09:59;;;;;;;;;82.00;68.00;;;;;20.53;57.46;100165.11;110032;1266;18243;-40
2023/03/15 06:12:26;;;;;;;;;40.00;39.00;;;;;20.58;57.02;100171.95;110026;1266;19894;-40
2023/03/15 06:14:54;;;;;;;;;100.00;76.00;;;;;20.59;57.57;100179.80;110044;1250;20676;-40
2023/03/15 06:17:21;;;;;;;;;99.00;79.00;;;;;20.57;57.87;100187.11;110021;1266;18914;-40
2023/03/15 06:19:49;;;;;;;;;84.50;66.50;;;;;20.55;58.05;100190.84;110049;1254;20505;-40
2023/03/15 06:22:19;;;;;;;;;88.00;67.50;;;;;20.53;58.42;100196.85;110006;1266;22569;-44
2023/03/15 06:24:46;;;;;;;;;77.00;61.00;;;;;20.51;58.16;100198.87;110001;1266;22303;-40
2023/03/15 06:27:14;;;;;;;;;66.50;54.50;;;;;20.59;58.17;100205.02;110008;1253;21844;-40
2023/03/15 06:29:41;;;;;;;;;48.00;47.00;;;;;20.65;57.95;100214.27;109997;1266;21078;-41
2023/03/15 06:32:09;;;;;;;;;48.00;44.50;;;;;20.70;58.18;100217.45;110049;1266;22203;-40
2023/03/15 06:34:36;;;;;;;;;35.00;35.00;;;;;20.71;57.61;100221.86;110012;1266;20294;-41
2023/03/15 06:37:04;;;;;;;;;43.00;36.00;;;;;20.68;57.38;100227.30;109910;1266;19386;-39
2023/03/15 06:39:33;;;;;;;;;31.00;29.00;;;;;20.66;57.36;100230.15;110040;1250;18653;-40
2023/03/15 06:42:01;;;;;;;;;31.00;26.00;;;;;20.65;57.52;100233.38;110007;1266;19947;-40
2023/03/15 06:44:28;;;;;;;;;21.00;20.00;;;;;20.63;57.34;100235.02;110016;1266;22270;-41
2023/03/15 06:46:56;;;;;;;;;23.00;19.00;;;;;20.62;57.04;100235.20;110025;1254;21277;-39
2023/03/15 06:49:23;;;;;;;;;21.00;20.00;;;;;20.59;56.58;100237.19;110006;1266;20512;-39
2023/03/15 06:51:51;;;;;;;;;20.00;19.00;;;;;20.57;56.94;100241.22;110037;1266;19423;-39
2023/03/15 06:54:18;;;;;;;;;22.00;22.00;;;;;20.55;56.73;100242.86;110032;1254;20013;-40
2023/03/15 06:56:46;;;;;;;;;20.00;17.00;;;;;20.55;57.09;100243.07;110045;1266;20112;-42
2023/03/15 06:59:13;;;;;;;;;18.50;16.00;;;;;20.54;56.89;100250.27;110024;1254;20790;-40
2023/03/15 07:01:41;;;;;;;;;19.00;17.00;;;;;20.54;57.13;100257.77;110008;1266;23492;-40
2023/03/15 07:04:08;;;;;;;;;12.00;12.00;;;;;20.53;56.85;100264.70;109964;1250;18712;-40
2023/03/15 07:06:35;;;;;;;;;13.00;13.00;;;;;20.52;56.86;100268.09;109962;1266;20657;-42
2023/03/15 07:09:03;;;;;;;;;16.50;15.00;;;;;20.52;56.94;100272.45;110024;1266;18614;-40
2023/03/15 07:11:30;;;;;;;;;13.00;11.00;;;;;20.52;56.87;100279.73;110041;1253;18698;-40
2023/03/15 07:13:58;;;;;;;;;13.00;13.00;;;;;20.51;56.76;100286.02;110016;1266;19421;-40
2023/03/15 07:16:26;;;;;;;;;16.00;13.50;;;;;20.52;56.94;100288.98;110009;1266;18625;-41
2023/03/15 07:18:54;;;;;;;;;16.00;14.50;;;;;20.54;56.75;100288.42;109999;1266;18685;-40
2023/03/15 07:21:22;;;;;;;;;13.00;12.00;;;;;20.59;56.68;100290.37;110014;1266;19369;-41
2023/03/15 07:23:49;;;;;;;;;16.00;13.33;;;;;20.62;57.38;100292.21;110038;1266;18901;-40
2023/03/15 07:26:17;;;;;;;;;16.00;14.00;;;;;20.64;57.60;100292.11;110062;1254;20129;-38
2023/03/15 07:28:44;;;;;;;;;11.00;11.00;;;;;20.65;58.08;100295.93;110041;1266;19456;-40
2023/03/15 07:31:12;;;;;;;;;10.50;10.00;;;;;20.66;57.89;100300.34;110014;1253;20003;-41
2023/03/15 07:33:39;;;;;;;;;13.33;13.33;;;;;20.67;58.24;100299.71;110009;1266;20278;-39
2023/03/15 07:36:07;;;;;;;;;11.00;10.67;;;;;20.68;58.40;100299.64;109987;1266;19635;-40
2023/03/15 07:38:34;;;;;;;;;14.67;11.67;;;;;20.66;57.97;100300.58;110018;1250;20017;-39
2023/03/15 07:41:02;;;;;;;;;13.00;11.00;;;;;20.66;58.29;100299.70;110015;1252;20446;-40
2023/03/15 07:43:29;;;;;;;;;11.00;11.00;;;;;20.71;58.20;100299.05;110017;1250;22633;-40
2023/03/15 07:45:56;;;;;;;;;13.00;10.00;;;;;20.76;57.83;100304.92;109951;1266;18749;-41
2023/03/15 07:48:24;;;;;;;;;13.00;13.00;;;;;20.64;56.07;100303.73;110049;1266;19050;-40
2023/03/15 07:50:51;;;;;;;;;15.00;10.50;;;;;20.53;52.72;100305.71;110038;1266;20730;-41
2023/03/15 07:53:19;;;;;;;;;10.50;10.00;;;;;20.48;53.71;100312.30;110005;1266;19981;-40
2023/03/15 07:55:46;;;;;;;;;13.00;12.00;;;;;20.48;54.05;100320.45;110025;1250;18803;-43
2023/03/15 07:58:14;;;;;;;;;14.00;10.00;;;;;20.49;53.54;100326.50;110038;1266;20774;-41
2023/03/15 08:00:41;;;;;;;;;9.50;9.50;;;;;20.50;53.84;100329.70;109963;1266;22476;-40
2023/03/15 08:03:08;;;;;;;;;10.00;8.00;;;;;20.51;54.34;100338.88;109963;1266;18740;-41
2023/03/15 08:05:36;;;;;;;;;10.00;10.00;;;;;20.51;54.63;100337.71;109913;1250;20705;-41
2023/03/15 08:08:03;;;;;;;;;10.00;10.00;;;;;20.52;54.86;100338.94;109952;1253;20021;-40
2023/03/15 08:10:31;;;;;;;;;8.00;8.00;;;;;20.54;54.74;100340.56;109984;1266;22695;-42
2023/03/15 08:12:59;;;;;;;;;10.50;8.00;;;;;20.56;54.81;100344.48;110041;1266;22179;-41
2023/03/15 08:15:26;;;;;;;;;11.00;10.00;;;;;20.57;55.06;100346.89;110023;1266;18524;-40
2023/03/15 08:18:00;;;;;;;;;16.00;10.00;;;;;20.58;55.03;100347.64;110036;1266;18697;-40
2023/03/15 08:20:27;;;;;;;;;10.00;8.00;;;;;20.59;55.14;100353.30;110086;1266;19351;-40
2023/03/15 08:22:55;;;;;;;;;8.50;8.00;;;;;20.59;55.57;100355.77;110037;1250;18697;-40
2023/03/15 08:25:23;;;;;;;;;7.00;7.00;;;;;20.57;55.65;100356.32;109710;1266;359105;-40
2023/03/15 08:27:50;;;;;;;;;8.00;7.00;;;;;20.55;55.61;100359.42;109922;1266;20718;-42
2023/03/15 08:30:18;;;;;;;;;11.50;10.50;;;;;20.59;55.68;100363.60;109903;1250;19647;-40
2023/03/15 08:32:46;;;;;;;;;10.00;10.00;;;;;20.58;55.46;100366.70;110018;1253;18555;-39
2023/03/15 08:35:13;;;;;;;;;10.00;7.50;;;;;20.59;55.73;100364.11;110017;1266;19342;-39
2023/03/15 08:37:40;;;;;;;;;8.00;8.00;;;;;20.60;55.59;100372.11;110042;1253;20276;-39
2023/03/15 08:40:09;;;;;;;;;9.00;9.00;;;;;20.62;55.75;100373.83;110019;1266;18832;-39
2023/03/15 08:42:36;;;;;;;;;10.00;9.00;;;;;20.63;56.13;100378.80;110023;1266;22075;-39
2023/03/15 08:45:04;;;;;;;;;13.00;11.00;;;;;20.65;56.16;100381.53;110044;1266;22684;-39
2023/03/15 08:47:34;;;;;;;;;13.00;10.00;;;;;20.63;56.48;100378.45;109994;1266;22196;-41
2023/03/15 08:50:04;;;;;;;;;12.67;12.00;;;;;20.64;56.28;100385.83;109990;1266;22584;-39
2023/03/15 08:52:31;;;;;;;;;10.00;10.00;;;;;20.65;56.62;100389.55;110020;1266;19255;-38
2023/03/15 08:54:59;;;;;;;;;67.33;50.33;;;;;20.66;56.50;100395.76;110033;1266;20512;-38
2023/03/15 08:57:27;;;;;;;;;103.00;75.00;;;;;20.68;56.35;100401.83;109986;1250;21311;-39
2023/03/15 08:59:55;;;;;;;;;115.00;87.00;;;;;20.72;56.43;100407.55;109968;1250;22898;-39
2023/03/15 09:02:22;;;;;;;;;88.00;62.00;;;;;20.71;56.50;100411.77;109899;1254;20403;-39
2023/03/15 09:04:50;;;;;;;;;101.00;70.00;;;;;20.72;56.48;100415.89;109949;1266;19534;-39
2023/03/15 09:07:17;;;;;;;;;98.33;74.00;;;;;20.72;56.39;100428.55;109933;1250;18603;-41
2023/03/15 09:09:46;;;;;;;;;93.33;67.00;;;;;20.75;56.75;100431.10;109998;1266;19967;-38
2023/03/15 09:12:14;;;;;;;;;87.33;59.67;;;;;20.75;56.54;100439.79;109939;1251;20811;-38
2023/03/15 09:14:42;;;;;;;;;76.00;54.00;;;;;20.74;56.74;100440.73;110002;1250;19113;-38
2023/03/15 09:17:09;;;;;;;;;78.00;54.00;;;;;20.73;56.84;100445.83;110013;1252;21803;-39
2023/03/15 09:19:37;;;;;;;;;70.50;53.50;;;;;20.72;56.64;100454.69;109987;1266;19595;-38
2023/03/15 09:22:04;;;;;;;;;63.00;47.50;;;;;20.70;57.05;100458.91;110045;1266;20087;-39
2023/03/15 09:24:32;;;;;;;;;50.50;42.00;;;;;20.70;56.78;100461.70;110039;1260;18756;-39
2023/03/15 09:26:59;;;;;;;;;60.50;44.50;;;;;20.72;56.87;100469.05;110020;1260;19439;-40
2023/03/15 09:29:27;;;;;;;;;58.00;42.50;;;;;20.72;56.74;100470.35;110010;1266;20287;-40
2023/03/15 09:31:54;;;;;;;;;59.50;47.00;;;;;20.73;56.91;100472.80;110028;1266;18761;-40
2023/03/15 09:34:22;;;;;;;;;41.50;35.00;;;;;20.72;56.89;100479.07;109929;1259;20981;-39
2023/03/15 09:36:51;;;;;;;;;31.00;27.00;;;;;20.70;56.84;100489.67;110036;1253;20007;-39
2023/03/15 09:39:19;;;;;;;;;36.00;31.00;;;;;20.70;56.82;100491.98;110033;1266;22329;-38
2023/03/15 09:41:46;;;;;;;;;32.00;29.00;;;;;20.68;56.88;100496.21;110011;1266;19725;-39
2023/03/15 09:44:14;;;;;;;;;28.00;25.00;;;;;20.67;56.88;100495.31;110018;1266;20386;-38
2023/03/15 09:46:41;;;;;;;;;32.00;28.00;;;;;20.66;56.99;100496.81;110006;1266;19073;-41
2023/03/15 09:49:08;;;;;;;;;24.33;19.33;;;;;20.65;57.21;100501.27;110057;1254;20840;-39
2023/03/15 09:51:36;;;;;;;;;33.00;26.00;;;;;20.65;57.41;100505.05;110052;1266;22622;-40
2023/03/15 09:54:04;;;;;;;;;23.00;20.00;;;;;20.66;57.04;100502.47;110021;1266;18751;-40
2023/03/15 09:56:31;;;;;;;;;23.50;20.00;;;;;20.68;57.07;100510.24;110002;1266;22108;-39
2023/03/15 09:59:00;;;;;;;;;25.00;19.00;;;;;20.70;56.98;100510.48;110021;1266;18602;-40
2023/03/15 10:01:27;;;;;;;;;22.00;20.00;;;;;20.71;57.21;100512.95;110013;1266;21381;-39
2023/03/15 10:03:55;;;;;;;;;18.50;17.50;;;;;20.71;57.45;100513.09;109982;1266;21112;-40
2023/03/15 10:06:26;;;;;;;;;16.00;14.00;;;;;20.72;57.29;100515.20;110017;1250;19920;-40
2023/03/15 10:08:53;;;;;;;;;19.50;15.00;;;;;20.72;57.55;100516.62;110026;1266;20064;-39
2023/03/15 10:11:21;;;;;;;;;19.00;14.00;;;;;20.72;57.62;100519.92;110048;1266;22671;-39
2023/03/15 10:13:48;;;;;;;;;14.00;13.00;;;;;20.72;57.57;100526.84;110059;1266;20241;-39
2023/03/15 10:16:16;;;;;;;;;17.00;13.50;;;;;20.72;57.88;100531.16;110024;1251;18753;-40
2023/03/15 10:18:43;;;;;;;;;14.00;13.00;;;;;20.72;57.64;100530.27;110037;1266;19659;-39
2023/03/15 10:21:11;;;;;;;;;13.50;12.00;;;;;20.72;57.91;100528.10;110035;1266;18614;-41
2023/03/15 10:23:40;;;;;;;;;11.00;11.00;;;;;20.71;57.67;100525.65;110033;1266;18702;-39
2023/03/15 10:26:08;;;;;;;;;16.00;14.00;;;;;20.72;57.63;100526.13;109987;1253;20884;-40
2023/03/15 10:28:36;;;;;;;;;11.00;11.00;;;;;20.72;57.42;100524.62;110032;1250;23934;-39
2023/03/15 10:31:04;;;;;;;;;15.00;13.00;;;;;20.72;57.39;100524.45;110066;1266;19194;-40
2023/03/15 10:33:31;;;;;;;;;10.50;9.00;;;;;20.72;57.38;100532.48;110019;1266;20752;-40
2023/03/15 10:35:59;;;;;;;;;13.00;11.00;;;;;20.70;57.25;100529.37;109913;1266;18939;-40
2023/03/15 10:38:27;;;;;;;;;12.00;10.00;;;;;20.69;57.27;100533.89;109927;1266;19978;-40
2023/03/15 10:40:54;;;;;;;;;14.00;13.00;;;;;20.67;57.02;100530.67;110035;1253;22728;-40
2023/03/15 10:43:22;;;;;;;;;8.00;7.00;;;;;20.62;56.48;100531.30;110036;1253;20087;-39
2023/03/15 10:45:49;;;;;;;;;12.00;10.00;;;;;20.53;55.30;100534.45;110007;1250;20041;-39
2023/03/15 10:48:16;;;;;;;;;10.50;10.50;;;;;20.50;55.00;100528.88;110041;1254;20801;-39
2023/03/15 10:50:44;;;;;;;;;8.00;8.00;;;;;20.52;54.59;100532.00;109988;1252;20013;-38
2023/03/15 10:53:11;;;;;;;;;10.00;8.00;;;;;20.56;54.32;100532.31;110033;1266;20278;-39
2023/03/15 10:55:39;;;;;;;;;11.00;9.00;;;;;20.58;54.22;100538.48;110013;1266;19361;-39
2023/03/15 10:58:06;;;;;;;;;7.00;7.00;;;;;20.59;54.66;100533.81;109989;1250;19994;-39
2023/03/15 11:00:35;;;;;;;;;8.00;7.00;;;;;20.61;54.65;100534.05;109962;1266;18718;-38
2023/03/15 11:03:02;;;;;;;;;8.00;8.00;;;;;20.65;54.84;100531.41;110022;1266;22758;-38
2023/03/15 11:05:30;;;;;;;;;8.50;7.00;;;;;20.66;54.75;100533.64;110024;1261;18524;-39
2023/03/15 11:07:57;;;;;;;;;8.00;5.00;;;;;20.68;55.02;100538.19;110037;1251;20606;-39
2023/03/15 11:10:25;;;;;;;;;11.00;7.00;;;;;20.68;55.22;100539.79;109997;1253;20672;-38
2023/03/15 11:12:52;;;;;;;;;4.00;4.00;;;;;20.69;55.05;100547.34;109986;1266;20962;-39
2023/03/15 11:15:20;;;;;;;;;8.00;7.00;;;;;20.68;55.43;100550.09;109985;1260;22088;-38